Time;durP1;ratioP1;P1;durP2;ratioP2;P2;SDS_P1;SDS_P2;PMS_P1;PMS_P2;Temp;Humidity;BMP_temperature;BMP_pressure;BME280_temperature;BME280_humidity;BME280_pressure;Samples;Min_cycle;Max_cycle;Signal;HPM_P1;HPM_P2
2022/12/10 00:02:20;;;;;;;23.77;12.68;;;;;;;;;;5037871;28;20033;-91
2022/12/10 00:04:46;;;;;;;32.17;14.98;;;;;;;;;;5037207;28;20354;-93
2022/12/10 00:07:12;;;;;;;24.73;13.05;;;;;;;;;;5037122;28;20057;-92
2022/12/10 00:09:38;;;;;;;24.23;12.80;;;;;;;;;;5036792;28;20041;-91
2022/12/10 00:12:05;;;;;;;28.40;13.13;;;;;;;;;;5038254;28;20399;-92
2022/12/10 00:14:31;;;;;;;25.38;11.50;;;;;;;;;;5036881;28;20026;-92
2022/12/10 00:16:57;;;;;;;24.92;11.93;;;;;;;;;;5036970;28;20026;-93
2022/12/10 00:19:23;;;;;;;30.75;12.27;;;;;;;;;;5036660;28;20102;-92
2022/12/10 00:21:49;;;;;;;27.17;12.38;;;;;;;;;;5038219;28;20040;-92
2022/12/10 00:24:15;;;;;;;28.48;12.73;;;;;;;;;;5036763;28;20027;-92
2022/12/10 00:32:48;;;;;;;29.63;12.18;;;;;;;;;;5037876;28;20067;-92
2022/12/10 00:35:14;;;;;;;27.08;12.27;;;;;;;;;;5036972;28;20072;-94
2022/12/10 00:37:41;;;;;;;30.58;14.10;;;;;;;;;;5037452;28;20017;-93
2022/12/10 00:40:07;;;;;;;25.33;11.88;;;;;;;;;;5036804;28;20441;-92
2022/12/10 00:42:33;;;;;;;23.33;11.57;;;;;;;;;;5037617;28;20021;-94
2022/12/10 00:44:59;;;;;;;23.35;12.02;;;;;;;;;;5036452;28;20079;-93
2022/12/10 00:47:25;;;;;;;27.88;11.32;;;;;;;;;;5036711;28;20036;-91
2022/12/10 00:49:51;;;;;;;22.48;10.98;;;;;;;;;;5036446;28;20017;-92
2022/12/10 00:52:17;;;;;;;23.77;11.20;;;;;;;;;;5036534;28;20120;-93
2022/12/10 00:54:43;;;;;;;22.95;11.15;;;;;;;;;;5037759;28;20029;-91
2022/12/10 00:57:09;;;;;;;22.90;11.05;;;;;;;;;;5037206;28;20037;-92
2022/12/10 00:59:35;;;;;;;24.45;10.93;;;;;;;;;;5037145;28;20029;-91
2022/12/10 01:02:01;;;;;;;21.58;11.50;;;;;;;;;;5019841;28;20423;-92
2022/12/10 01:04:27;;;;;;;24.42;12.85;;;;;;;;;;5036232;28;20083;-92
2022/12/10 01:06:54;;;;;;;22.48;12.43;;;;;;;;;;5037334;28;20026;-92
2022/12/10 01:09:25;;;;;;;26.40;12.70;;;;;;;;;;5037365;28;20365;-90
2022/12/10 01:11:51;;;;;;;28.25;12.27;;;;;;;;;;5037487;28;20022;-91
2022/12/10 01:14:28;;;;;;;22.13;11.63;;;;;;;;;;5036449;28;20340;-91
2022/12/10 01:16:55;;;;;;;30.30;13.18;;;;;;;;;;5038596;28;20029;-91
2022/12/10 01:19:21;;;;;;;21.33;11.35;;;;;;;;;;5041286;28;20030;-91
2022/12/10 01:21:51;;;;;;;27.30;12.15;;;;;;;;;;5040338;28;20037;-92
2022/12/10 01:24:17;;;;;;;24.70;10.45;;;;;;;;;;5040032;28;20037;-91
2022/12/10 01:26:43;;;;;;;24.98;11.20;;;;;;;;;;5040830;28;20529;-92
2022/12/10 01:29:11;;;;;;;23.70;11.75;;;;;;;;;;5040067;28;20420;-91
2022/12/10 01:31:38;;;;;;;23.35;10.20;;;;;;;;;;5040993;28;20022;-92
2022/12/10 01:34:05;;;;;;;20.33;11.38;;;;;;;;;;5040868;28;20434;-91
2022/12/10 01:36:41;;;;;;;25.70;11.15;;;;;;;;;;5040999;28;20088;-91
2022/12/10 01:39:08;;;;;;;26.00;12.27;;;;;;;;;;5040837;28;20032;-91
2022/12/10 01:41:37;;;;;;;23.65;12.90;;;;;;;;;;5040749;28;20106;-89
2022/12/10 01:44:05;;;;;;;20.65;12.05;;;;;;;;;;5040289;28;20438;-91
2022/12/10 01:46:33;;;;;;;36.25;12.98;;;;;;;;;;5040614;28;20048;-93
2022/12/10 01:49:01;;;;;;;25.63;11.73;;;;;;;;;;5040504;28;20064;-92
2022/12/10 01:51:29;;;;;;;21.33;11.20;;;;;;;;;;5040803;28;20041;-92
2022/12/10 01:53:55;;;;;;;23.67;10.73;;;;;;;;;;5040318;28;20112;-91
2022/12/10 01:56:22;;;;;;;21.33;10.95;;;;;;;;;;5039266;28;20038;-92
2022/12/10 01:58:50;;;;;;;20.85;11.38;;;;;;;;;;5039917;28;20032;-93
2022/12/10 02:01:31;;;;;;;18.17;9.95;;;;;;;;;;5040473;28;20440;-91
2022/12/10 02:04:16;;;;;;;24.00;10.73;;;;;;;;;;5040779;28;20057;-94
2022/12/10 02:06:46;;;;;;;20.08;9.80;;;;;;;;;;5039276;28;20025;-93
2022/12/10 02:09:17;;;;;;;24.10;11.07;;;;;;;;;;5039152;28;20026;-92
2022/12/10 02:11:47;;;;;;;25.23;10.23;;;;;;;;;;5039430;28;20021;-94
2022/12/10 02:14:30;;;;;;;23.10;10.25;;;;;;;;;;5039006;28;20029;-92
2022/12/10 02:16:56;;;;;;;24.13;10.25;;;;;;;;;;5040018;28;20033;-91
2022/12/10 02:19:27;;;;;;;34.67;22.73;;;;;;;;;;5039021;28;20120;-91
2022/12/10 02:21:54;;;;;;;33.20;21.42;;;;;;;;;;5040178;28;20108;-94
2022/12/10 02:24:26;;;;;;;23.83;13.60;;;;;;;;;;5039965;28;20301;-92
2022/12/10 02:29:58;;;;;;;20.25;11.43;;;;;;;;;;5039745;28;20041;-90
2022/12/10 02:32:26;;;;;;;22.60;10.95;;;;;;;;;;5038586;28;20025;-90
2022/12/10 02:34:54;;;;;;;23.25;11.30;;;;;;;;;;5039850;28;20029;-90
2022/12/10 02:37:31;;;;;;;20.70;10.98;;;;;;;;;;5018845;28;20042;-90
2022/12/10 02:39:59;;;;;;;20.15;11.02;;;;;;;;;;5019762;28;20316;-91
2022/12/10 02:42:26;;;;;;;24.88;11.15;;;;;;;;;;5021595;28;20113;-92
2022/12/10 02:44:54;;;;;;;27.38;11.18;;;;;;;;;;5038351;28;20045;-91
2022/12/10 02:47:20;;;;;;;22.27;10.80;;;;;;;;;;5038453;28;20068;-91
2022/12/10 02:49:48;;;;;;;24.17;12.30;;;;;;;;;;5039637;28;20384;-93
2022/12/10 02:52:15;;;;;;;25.35;12.55;;;;;;;;;;5038266;28;20026;-90
2022/12/10 02:54:41;;;;;;;23.33;12.57;;;;;;;;;;5039010;28;20025;-91
2022/12/10 02:57:41;;;;;;;21.00;12.50;;;;;;;;;;5039615;28;20036;-92
2022/12/10 03:00:18;;;;;;;23.40;12.18;;;;;;;;;;5038835;28;20029;-90
2022/12/10 03:02:47;;;;;;;21.58;11.85;;;;;;;;;;5039321;28;20037;-91
2022/12/10 03:05:34;;;;;;;20.02;11.57;;;;;;;;;;5037992;28;20116;-90
2022/12/10 03:08:09;;;;;;;19.63;11.05;;;;;;;;;;5039080;28;20025;-90
2022/12/10 03:10:38;;;;;;;22.33;11.02;;;;;;;;;;5038967;28;20029;-90
2022/12/10 03:13:07;;;;;;;19.90;10.10;;;;;;;;;;5038952;28;20036;-89
2022/12/10 03:15:35;;;;;;;19.98;10.55;;;;;;;;;;5038007;28;20112;-90
2022/12/10 03:18:05;;;;;;;17.48;10.55;;;;;;;;;;5038930;28;20048;-93
2022/12/10 03:20:32;;;;;;;24.65;11.68;;;;;;;;;;5039039;28;20051;-89
2022/12/10 03:22:59;;;;;;;23.98;11.45;;;;;;;;;;5038342;28;20468;-91
2022/12/10 03:25:27;;;;;;;21.25;10.98;;;;;;;;;;5037487;28;20025;-90
2022/12/10 03:27:55;;;;;;;21.67;10.30;;;;;;;;;;5037421;28;20323;-89
2022/12/10 03:30:21;;;;;;;20.08;10.45;;;;;;;;;;5038610;28;20026;-90
2022/12/10 03:32:47;;;;;;;24.40;11.13;;;;;;;;;;5037595;28;20025;-89
2022/12/10 03:35:15;;;;;;;25.08;10.57;;;;;;;;;;5038424;28;20021;-90
2022/12/10 03:37:41;;;;;;;24.30;11.18;;;;;;;;;;5037546;28;20116;-90
2022/12/10 03:40:09;;;;;;;17.60;10.07;;;;;;;;;;5037890;28;20022;-90
2022/12/10 03:45:39;;;;;;;19.38;9.75;;;;;;;;;;5038443;28;20032;-88
2022/12/10 03:48:05;;;;;;;23.67;10.80;;;;;;;;;;5037367;28;20450;-88
2022/12/10 03:50:31;;;;;;;24.88;11.63;;;;;;;;;;5033968;28;20408;-90
2022/12/10 03:52:57;;;;;;;23.42;10.73;;;;;;;;;;5034450;28;20408;-88
2022/12/10 03:55:23;;;;;;;22.30;11.05;;;;;;;;;;5018381;28;20058;-89
2022/12/10 03:57:49;;;;;;;23.85;11.05;;;;;;;;;;5033864;28;20034;-88
2022/12/10 04:00:15;;;;;;;20.33;10.45;;;;;;;;;;5019911;28;20431;-90
2022/12/10 04:02:42;;;;;;;18.92;9.77;;;;;;;;;;5037054;28;20028;-90
2022/12/10 04:05:08;;;;;;;21.65;9.75;;;;;;;;;;5038350;28;20029;-90
2022/12/10 04:07:35;;;;;;;21.38;10.43;;;;;;;;;;5038057;28;20018;-90
2022/12/10 04:10:01;;;;;;;20.67;10.35;;;;;;;;;;5038167;28;20048;-91
2022/12/10 04:12:27;;;;;;;28.77;11.63;;;;;;;;;;5036950;28;20029;-90
2022/12/10 04:17:37;;;;;;;21.17;9.88;;;;;;;;;;5018285;28;20080;-91
2022/12/10 04:20:04;;;;;;;22.73;11.00;;;;;;;;;;5017883;28;20408;-91
2022/12/10 04:27:59;;;;;;;21.15;11.30;;;;;;;;;;5037932;28;20117;-91
2022/12/10 04:30:25;;;;;;;22.35;11.52;;;;;;;;;;5037827;28;20033;-90
2022/12/10 04:32:52;;;;;;;26.98;10.48;;;;;;;;;;5036582;28;20029;-89
2022/12/10 04:35:18;;;;;;;32.38;12.98;;;;;;;;;;5036554;28;20029;-89
2022/12/10 04:37:44;;;;;;;36.28;14.55;;;;;;;;;;5036439;28;20021;-89
2022/12/10 04:40:10;;;;;;;44.65;17.15;;;;;;;;;;5036920;28;20057;-90
2022/12/10 04:42:36;;;;;;;48.08;18.33;;;;;;;;;;5037358;28;20112;-90
2022/12/10 04:45:02;;;;;;;34.63;13.48;;;;;;;;;;5037650;28;20026;-89
2022/12/10 04:47:28;;;;;;;27.73;12.82;;;;;;;;;;5036248;28;20357;-90
2022/12/10 04:49:54;;;;;;;27.00;12.77;;;;;;;;;;5037632;28;20017;-90
2022/12/10 04:52:20;;;;;;;27.02;12.40;;;;;;;;;;5039862;28;20029;-90
2022/12/10 04:54:46;;;;;;;26.02;11.90;;;;;;;;;;5041500;28;20441;-90
2022/12/10 04:57:13;;;;;;;20.63;10.60;;;;;;;;;;5040470;28;20416;-90
2022/12/10 04:59:39;;;;;;;23.90;10.15;;;;;;;;;;5041697;28;20338;-90
2022/12/10 05:02:06;;;;;;;31.95;14.25;;;;;;;;;;5041110;28;20087;-91
2022/12/10 05:04:33;;;;;;;30.77;13.80;;;;;;;;;;5041138;28;20026;-89
2022/12/10 05:06:59;;;;;;;24.77;11.07;;;;;;;;;;5041287;28;20087;-90
2022/12/10 05:09:25;;;;;;;23.20;10.02;;;;;;;;;;5040746;28;20471;-91
2022/12/10 05:11:51;;;;;;;23.77;10.98;;;;;;;;;;5041528;28;20029;-89
2022/12/10 05:14:17;;;;;;;16.10;10.50;;;;;;;;;;5041591;28;20105;-91
2022/12/10 05:16:43;;;;;;;19.50;12.10;;;;;;;;;;5041123;28;20059;-90
2022/12/10 05:19:10;;;;;;;26.80;13.43;;;;;;;;;;5041334;28;20025;-91
2022/12/10 05:24:21;;;;;;;21.63;10.48;;;;;;;;;;5040740;28;20534;-89
2022/12/10 05:26:50;;;;;;;21.10;11.02;;;;;;;;;;5040900;28;20030;-90
2022/12/10 05:29:16;;;;;;;29.88;14.57;;;;;;;;;;5039975;28;20022;-90
2022/12/10 05:31:43;;;;;;;23.35;12.25;;;;;;;;;;5040367;28;20037;-91
2022/12/10 05:34:10;;;;;;;24.13;12.10;;;;;;;;;;5040076;28;20035;-90
2022/12/10 05:36:36;;;;;;;33.20;16.45;;;;;;;;;;5040850;28;20025;-89
2022/12/10 05:39:03;;;;;;;27.48;16.42;;;;;;;;;;5040924;28;20021;-90
2022/12/10 05:41:30;;;;;;;28.88;13.82;;;;;;;;;;5039275;28;20021;-90
2022/12/10 05:43:57;;;;;;;19.35;8.80;;;;;;;;;;5040876;28;20033;-89
2022/12/10 05:46:26;;;;;;;21.85;10.60;;;;;;;;;;5039732;28;20053;-90
2022/12/10 05:48:52;;;;;;;27.85;13.32;;;;;;;;;;5039542;28;20380;-90
2022/12/10 05:51:20;;;;;;;27.35;14.88;;;;;;;;;;5039543;28;20021;-90
2022/12/10 05:53:46;;;;;;;27.38;14.68;;;;;;;;;;5040374;28;20025;-90
2022/12/10 05:56:15;;;;;;;20.77;12.93;;;;;;;;;;5040327;28;20029;-89
2022/12/10 05:59:18;;;;;;;27.50;15.52;;;;;;;;;;5040143;28;20029;-90
2022/12/10 06:01:44;;;;;;;31.35;16.02;;;;;;;;;;5038759;28;20050;-91
2022/12/10 06:04:10;;;;;;;36.53;18.98;;;;;;;;;;5040337;28;20407;-91
2022/12/10 06:06:37;;;;;;;39.20;20.80;;;;;;;;;;5039474;28;20060;-91
2022/12/10 06:09:04;;;;;;;48.20;23.83;;;;;;;;;;5039775;28;20034;-89
2022/12/10 06:11:30;;;;;;;42.20;21.35;;;;;;;;;;5039988;28;20167;-90
2022/12/10 06:16:59;;;;;;;29.85;16.27;;;;;;;;;;5040129;28;20025;-90
2022/12/10 06:19:25;;;;;;;97.85;34.28;;;;;;;;;;5039872;28;20116;-90
2022/12/10 06:21:51;;;;;;;123.43;40.17;;;;;;;;;;5040226;28;20029;-90
2022/12/10 06:24:17;;;;;;;46.35;19.40;;;;;;;;;;5038945;28;20025;-89
2022/12/10 06:26:43;;;;;;;108.82;41.55;;;;;;;;;;5038701;28;20033;-88
2022/12/10 06:32:13;;;;;;;76.57;36.58;;;;;;;;;;5039985;28;20036;-90
2022/12/10 06:34:39;;;;;;;59.05;22.17;;;;;;;;;;5038710;28;20124;-91
2022/12/10 06:37:05;;;;;;;75.38;30.35;;;;;;;;;;5038690;28;20032;-90
2022/12/10 06:39:31;;;;;;;100.43;43.35;;;;;;;;;;5038196;28;20040;-90
2022/12/10 06:41:57;;;;;;;40.92;19.95;;;;;;;;;;5039066;28;20112;-90
2022/12/10 06:47:27;;;;;;;52.03;26.60;;;;;;;;;;5032355;28;20076;-90
2022/12/10 06:49:55;;;;;;;35.13;17.95;;;;;;;;;;5027730;28;20025;-89
2022/12/10 06:52:21;;;;;;;32.42;14.70;;;;;;;;;;5039594;28;20026;-90
2022/12/10 06:54:48;;;;;;;23.17;12.68;;;;;;;;;;5026443;28;20030;-91
2022/12/10 06:57:14;;;;;;;33.17;17.25;;;;;;;;;;5036901;28;20041;-90
2022/12/10 07:02:44;;;;;;;25.25;13.77;;;;;;;;;;5012008;28;20333;-89
2022/12/10 07:05:10;;;;;;;30.45;15.48;;;;;;;;;;5018449;28;20038;-89
2022/12/10 07:07:37;;;;;;;36.40;16.90;;;;;;;;;;5025810;28;20025;-90
2022/12/10 07:10:03;;;;;;;31.35;15.55;;;;;;;;;;5038250;28;20021;-89
2022/12/10 07:12:29;;;;;;;25.88;15.00;;;;;;;;;;5038399;28;20018;-90
2022/12/10 07:15:14;;;;;;;32.03;15.02;;;;;;;;;;5036956;28;20047;-89
2022/12/10 07:17:40;;;;;;;32.00;16.05;;;;;;;;;;5018061;28;20042;-89
2022/12/10 07:20:06;;;;;;;27.42;16.10;;;;;;;;;;5025413;28;20018;-89
2022/12/10 07:22:33;;;;;;;26.88;14.95;;;;;;;;;;5039046;28;20029;-89
2022/12/10 07:24:59;;;;;;;30.48;17.98;;;;;;;;;;5025185;28;20113;-89
2022/12/10 07:27:25;;;;;;;40.35;19.77;;;;;;;;;;5026784;28;20030;-88
2022/12/10 07:29:51;;;;;;;33.60;19.63;;;;;;;;;;5038256;28;20032;-87
2022/12/10 07:32:17;;;;;;;46.15;28.70;;;;;;;;;;5037990;28;20037;-88
2022/12/10 07:34:43;;;;;;;81.45;41.10;;;;;;;;;;5037911;28;20029;-87
2022/12/10 07:37:09;;;;;;;67.50;36.45;;;;;;;;;;5037536;28;20030;-86
2022/12/10 07:39:36;;;;;;;64.90;33.70;;;;;;;;;;5038760;28;20064;-87
2022/12/10 07:42:02;;;;;;;58.97;34.25;;;;;;;;;;5038366;28;20041;-85
2022/12/10 07:48:08;;;;;;;73.15;38.88;;;;;;;;;;5031343;28;20029;-84
2022/12/10 07:50:35;;;;;;;81.03;46.05;;;;;;;;;;5028078;28;20105;-88
2022/12/10 07:53:01;;;;;;;72.45;41.58;;;;;;;;;;5038138;28;20034;-85
2022/12/10 07:55:27;;;;;;;128.70;52.78;;;;;;;;;;5036480;28;20057;-87
2022/12/10 07:57:53;;;;;;;143.20;61.25;;;;;;;;;;5037646;28;20040;-86
2022/12/10 08:00:38;;;;;;;224.40;82.45;;;;;;;;;;5033263;28;20032;-85
2022/12/10 08:03:04;;;;;;;236.20;96.28;;;;;;;;;;5036249;28;20051;-89
2022/12/10 08:05:30;;;;;;;202.13;80.18;;;;;;;;;;5037236;28;20049;-85
2022/12/10 08:07:56;;;;;;;182.20;69.10;;;;;;;;;;5036592;28;20324;-86
2022/12/10 08:10:22;;;;;;;164.98;62.70;;;;;;;;;;5032615;28;20462;-86
2022/12/10 08:12:48;;;;;;;99.28;46.05;;;;;;;;;;5027927;28;20390;-85
2022/12/10 08:15:14;;;;;;;54.30;27.88;;;;;;;;;;5018051;28;20316;-85
2022/12/10 08:17:40;;;;;;;57.15;27.20;;;;;;;;;;5033348;28;20037;-85
2022/12/10 08:20:06;;;;;;;58.13;30.17;;;;;;;;;;5037809;28;20164;-85
2022/12/10 08:22:34;;;;;;;81.35;38.95;;;;;;;;;;5036828;28;20021;-86
2022/12/10 08:25:00;;;;;;;75.80;32.22;;;;;;;;;;5036633;28;20033;-86
2022/12/10 08:27:26;;;;;;;62.28;27.48;;;;;;;;;;5036603;28;20127;-85
2022/12/10 08:30:10;;;;;;;54.85;23.15;;;;;;;;;;5037290;28;20029;-86
2022/12/10 08:32:36;;;;;;;41.28;22.73;;;;;;;;;;5037553;28;20412;-85
2022/12/10 08:35:03;;;;;;;36.42;21.35;;;;;;;;;;5035410;28;20035;-85
2022/12/10 08:37:29;;;;;;;44.92;26.05;;;;;;;;;;5036884;28;20029;-85
2022/12/10 08:39:55;;;;;;;44.72;24.90;;;;;;;;;;5036627;28;20037;-86
2022/12/10 08:42:21;;;;;;;39.13;24.20;;;;;;;;;;5036518;28;20037;-85
2022/12/10 08:45:06;;;;;;;48.15;27.83;;;;;;;;;;5036401;28;20032;-88
2022/12/10 08:47:32;;;;;;;53.85;30.45;;;;;;;;;;5037615;28;20042;-86
2022/12/10 08:49:58;;;;;;;150.77;79.35;;;;;;;;;;5037280;28;20029;-85
2022/12/10 08:52:24;;;;;;;142.18;72.97;;;;;;;;;;5036114;28;20473;-87
2022/12/10 08:54:50;;;;;;;99.55;54.05;;;;;;;;;;5037324;28;20116;-85
2022/12/10 08:57:16;;;;;;;55.53;32.85;;;;;;;;;;5037302;28;20057;-87
2022/12/10 09:02:46;;;;;;;33.55;22.67;;;;;;;;;;5036713;28;20044;-86
2022/12/10 09:05:13;;;;;;;36.38;22.50;;;;;;;;;;5036371;28;20120;-85
2022/12/10 09:07:39;;;;;;;34.50;18.33;;;;;;;;;;5037766;28;20519;-86
2022/12/10 09:10:05;;;;;;;35.90;20.02;;;;;;;;;;5037208;28;20021;-86
2022/12/10 09:12:33;;;;;;;33.22;18.85;;;;;;;;;;5037247;28;20137;-86
2022/12/10 09:18:03;;;;;;;34.63;21.67;;;;;;;;;;5037237;28;20044;-85
2022/12/10 09:20:29;;;;;;;42.33;25.45;;;;;;;;;;5037305;28;20021;-87
2022/12/10 09:22:55;;;;;;;41.38;23.88;;;;;;;;;;5036724;28;20018;-90
2022/12/10 09:25:21;;;;;;;43.50;23.67;;;;;;;;;;5036562;28;20032;-88
2022/12/10 09:27:47;;;;;;;39.20;23.70;;;;;;;;;;5035957;28;20033;-87
2022/12/10 09:33:17;;;;;;;34.70;21.48;;;;;;;;;;5017573;28;20081;-86
2022/12/10 09:35:43;;;;;;;29.52;18.02;;;;;;;;;;5028633;28;20029;-87
2022/12/10 09:38:09;;;;;;;31.02;18.67;;;;;;;;;;5039720;28;20032;-86
2022/12/10 09:40:39;;;;;;;29.20;19.13;;;;;;;;;;5039442;28;20125;-86
2022/12/10 09:43:12;;;;;;;44.45;25.20;;;;;;;;;;5040672;28;20025;-87
2022/12/10 09:46:15;;;;;;;33.13;19.80;;;;;;;;;;5040729;28;20033;-87
2022/12/10 09:48:44;;;;;;;31.77;20.80;;;;;;;;;;5040192;28;20030;-88
2022/12/10 09:51:13;;;;;;;35.10;19.35;;;;;;;;;;5040479;28;20030;-87
2022/12/10 09:53:40;;;;;;;29.95;17.90;;;;;;;;;;5040148;28;20026;-87
2022/12/10 09:56:07;;;;;;;28.63;17.85;;;;;;;;;;5026241;28;20038;-87
2022/12/10 09:58:34;;;;;;;35.78;20.67;;;;;;;;;;5025846;28;20033;-87
2022/12/10 10:04:04;;;;;;;33.00;17.20;;;;;;;;;;5028143;28;20044;-86
2022/12/10 10:06:30;;;;;;;28.35;14.98;;;;;;;;;;5040026;28;20030;-87
2022/12/10 10:08:59;;;;;;;33.47;19.05;;;;;;;;;;5039663;28;20042;-87
2022/12/10 10:11:28;;;;;;;38.25;20.42;;;;;;;;;;5038828;28;20022;-86
2022/12/10 10:13:59;;;;;;;38.38;19.65;;;;;;;;;;5040096;28;20029;-86
2022/12/10 10:16:50;;;;;;;44.33;19.40;;;;;;;;;;5038824;28;20094;-86
2022/12/10 10:19:18;;;;;;;40.03;19.02;;;;;;;;;;5026760;28;20049;-89
2022/12/10 10:21:51;;;;;;;46.30;22.75;;;;;;;;;;5039100;28;20029;-89
2022/12/10 10:24:18;;;;;;;38.75;22.38;;;;;;;;;;5039924;28;20032;-89
2022/12/10 10:26:48;;;;;;;32.80;17.52;;;;;;;;;;5038630;28;20051;-88
2022/12/10 10:29:17;;;;;;;30.08;16.20;;;;;;;;;;5039410;28;20025;-90
2022/12/10 10:31:43;;;;;;;27.45;15.20;;;;;;;;;;5039858;28;20430;-90
2022/12/10 10:34:18;;;;;;;24.95;13.80;;;;;;;;;;5040058;28;20052;-88
2022/12/10 10:36:44;;;;;;;23.10;12.63;;;;;;;;;;5038636;28;20021;-89
2022/12/10 10:39:16;;;;;;;28.70;15.75;;;;;;;;;;5039698;28;20319;-88
2022/12/10 10:41:42;;;;;;;;;;;;;;;;;;5038786;28;20025;-87
2022/12/10 10:44:21;;;;;;;25.42;14.38;;;;;;;;;;5038425;28;19931;-88
2022/12/10 10:46:49;;;;;;;22.75;12.80;;;;;;;;;;5039351;28;20029;-90
2022/12/10 10:49:20;;;;;;;31.33;14.98;;;;;;;;;;5039463;28;20033;-89
2022/12/10 10:51:46;;;;;;;21.73;13.98;;;;;;;;;;5038493;28;20121;-88
2022/12/10 10:54:12;;;;;;;39.97;19.08;;;;;;;;;;5038342;28;20049;-89
2022/12/10 10:56:42;;;;;;;26.70;13.98;;;;;;;;;;5039393;28;20308;-88
2022/12/10 10:59:28;;;;;;;21.05;12.57;;;;;;;;;;5038270;28;20068;-89
2022/12/10 11:01:55;;;;;;;28.08;12.48;;;;;;;;;;5038157;28;20059;-88
2022/12/10 11:04:33;;;;;;;27.33;14.73;;;;;;;;;;5038836;28;20054;-89
2022/12/10 11:07:02;;;;;;;32.83;15.00;;;;;;;;;;5038958;28;20021;-88
2022/12/10 11:09:29;;;;;;;41.13;18.00;;;;;;;;;;5038264;28;20386;-89
2022/12/10 11:12:01;;;;;;;45.25;18.33;;;;;;;;;;5039215;28;20017;-89
2022/12/10 11:14:27;;;;;;;;;;;;;;;;;;5039500;28;20087;-90
2022/12/10 11:17:00;;;;;;;168.88;57.80;;;;;;;;;;5038050;28;20283;-89
2022/12/10 11:19:26;;;;;;;180.45;69.60;;;;;;;;;;5037831;28;20120;-87
2022/12/10 11:21:53;;;;;;;52.95;25.08;;;;;;;;;;5037324;28;20040;-89
2022/12/10 11:24:20;;;;;;;27.88;15.65;;;;;;;;;;5038390;28;20028;-90
2022/12/10 11:26:55;;;;;;;25.88;12.50;;;;;;;;;;5038754;28;20196;-91
2022/12/10 11:29:40;;;;;;;27.17;14.43;;;;;;;;;;5037882;28;20029;-91
2022/12/10 11:32:06;;;;;;;31.38;16.25;;;;;;;;;;5037641;28;20021;-89
2022/12/10 11:34:42;;;;;;;31.02;15.25;;;;;;;;;;5037693;28;20025;-91
2022/12/10 11:37:08;;;;;;;27.38;14.60;;;;;;;;;;5038608;28;20096;-90
2022/12/10 11:39:46;;;;;;;25.33;13.77;;;;;;;;;;5037444;28;20046;-90
2022/12/10 11:42:12;;;;;;;23.48;13.23;;;;;;;;;;5037793;28;20029;-91
2022/12/10 11:44:47;;;;;;;33.53;18.52;;;;;;;;;;5037101;28;20021;-91
2022/12/10 11:47:19;;;;;;;25.48;13.80;;;;;;;;;;5038319;28;20021;-90
2022/12/10 11:49:57;;;;;;;37.25;20.48;;;;;;;;;;5046188;22;20054;-91
2022/12/10 11:52:37;;;;;;;28.80;16.25;;;;;;;;;;5038498;28;20033;-90
2022/12/10 11:55:14;;;;;;;98.10;64.53;;;;;;;;;;5038468;28;20053;-90
2022/12/10 11:57:52;;;;;;;75.85;49.90;;;;;;;;;;5038967;28;20026;-91
2022/12/10 12:00:22;;;;;;;181.20;123.10;;;;;;;;;;5020513;28;20022;-91
2022/12/10 12:03:02;;;;;;;541.58;269.23;;;;;;;;;;5021171;28;20037;-90
2022/12/10 12:05:28;;;;;;;159.68;64.43;;;;;;;;;;5021165;28;20044;-91
2022/12/10 12:08:07;;;;;;;188.85;78.63;;;;;;;;;;5021405;28;20109;-91
2022/12/10 12:10:39;;;;;;;387.35;158.18;;;;;;;;;;5038343;28;20018;-91
2022/12/10 12:13:08;;;;;;;200.40;84.40;;;;;;;;;;5037956;28;20317;-91
2022/12/10 12:15:40;;;;;;;186.43;77.50;;;;;;;;;;5037753;28;20025;-91
2022/12/10 12:18:18;;;;;;;387.95;178.25;;;;;;;;;;5020522;28;20021;-91
2022/12/10 12:20:47;;;;;;;547.22;272.05;;;;;;;;;;5038331;28;20032;-90
2022/12/10 12:23:13;;;;;;;689.97;358.85;;;;;;;;;;5020177;28;20029;-90
2022/12/10 12:25:47;;;;;;;280.85;129.57;;;;;;;;;;5037933;28;20059;-91
2022/12/10 12:28:31;;;;;;;512.75;269.52;;;;;;;;;;5037893;28;20021;-91
2022/12/10 12:31:18;;;;;;;663.33;369.48;;;;;;;;;;5020250;28;20064;-91
2022/12/10 12:34:02;;;;;;;749.40;426.85;;;;;;;;;;5020127;28;20030;-90
2022/12/10 12:36:29;;;;;;;431.02;224.38;;;;;;;;;;5038149;28;20446;-92
2022/12/10 12:39:06;;;;;;;196.05;95.03;;;;;;;;;;5037740;28;20056;-91
2022/12/10 12:41:52;;;;;;;269.33;134.93;;;;;;;;;;5020065;28;20037;-92
2022/12/10 12:44:25;;;;;;;409.55;212.52;;;;;;;;;;5037509;28;20022;-91
2022/12/10 12:46:52;;;;;;;404.80;205.50;;;;;;;;;;5037705;28;20428;-91
2022/12/10 12:49:27;;;;;;;532.72;293.35;;;;;;;;;;5019851;28;20038;-91
2022/12/10 12:51:53;;;;;;;440.73;230.85;;;;;;;;;;5020214;28;20030;-90
2022/12/10 12:54:19;;;;;;;373.65;194.35;;;;;;;;;;5037556;28;20025;-91
2022/12/10 12:56:45;;;;;;;281.13;143.75;;;;;;;;;;5037518;28;20084;-91
2022/12/10 12:59:12;;;;;;;491.48;285.33;;;;;;;;;;5038392;28;20033;-91
2022/12/10 13:01:44;;;;;;;409.02;231.60;;;;;;;;;;5039612;28;20061;-92
2022/12/10 13:04:10;;;;;;;401.13;223.32;;;;;;;;;;5041044;28;20025;-91
2022/12/10 13:06:44;;;;;;;441.50;238.23;;;;;;;;;;5024039;28;20022;-92
2022/12/10 13:09:13;;;;;;;492.60;269.33;;;;;;;;;;5021495;28;20412;-92
2022/12/10 13:12:09;;;;;;;323.05;144.45;;;;;;;;;;5039920;28;20030;-92
2022/12/10 13:15:00;;;;;;;278.83;117.25;;;;;;;;;;4943260;29;20418;-91
2022/12/10 13:17:33;;;;;;;141.48;57.28;;;;;;;;;;4943999;29;20038;-92
2022/12/10 13:20:18;;;;;;;273.92;125.82;;;;;;;;;;4944385;29;20136;-92
2022/12/10 13:22:54;;;;;;;203.93;83.10;;;;;;;;;;4942225;29;20075;-92
2022/12/10 13:25:37;;;;;;;178.35;66.78;;;;;;;;;;4941987;29;20040;-92
2022/12/10 13:28:16;;;;;;;265.70;105.65;;;;;;;;;;4942224;29;20083;-91
2022/12/10 13:30:42;;;;;;;407.75;165.68;;;;;;;;;;4941919;29;20027;-90
2022/12/10 13:33:11;;;;;;;493.65;221.98;;;;;;;;;;4941891;29;20031;-90
2022/12/10 13:36:03;;;;;;;383.08;154.90;;;;;;;;;;4941875;29;20031;-91
2022/12/10 13:38:29;;;;;;;456.92;172.68;;;;;;;;;;4941585;29;20088;-92
2022/12/10 13:46:52;;;;;;;485.25;183.73;;;;;;;;;;4941994;29;20402;-92
2022/12/10 13:49:23;;;;;;;286.60;106.10;;;;;;;;;;4941450;29;20023;-91
2022/12/10 13:51:57;;;;;;;587.63;257.25;;;;;;;;;;5026938;28;20037;-92
2022/12/10 13:54:46;;;;;;;418.15;164.88;;;;;;;;;;5040461;28;20088;-91
2022/12/10 13:57:18;;;;;;;435.85;177.80;;;;;;;;;;5022393;28;20439;-90
2022/12/10 13:59:48;;;;;;;392.63;157.90;;;;;;;;;;5040354;28;20052;-92
2022/12/10 14:02:31;;;;;;;405.30;155.77;;;;;;;;;;5022916;28;20026;-91
2022/12/10 14:05:00;;;;;;;372.15;149.52;;;;;;;;;;5040149;28;20029;-93
2022/12/10 14:07:27;;;;;;;280.02;114.40;;;;;;;;;;5022778;28;20029;-91
2022/12/10 14:09:54;;;;;;;333.77;145.55;;;;;;;;;;5022233;28;20029;-91
2022/12/10 14:12:26;;;;;;;390.05;155.30;;;;;;;;;;5040356;28;20048;-92
2022/12/10 14:15:05;;;;;;;150.60;64.63;;;;;;;;;;5022050;28;20033;-91
2022/12/10 14:17:33;;;;;;;133.00;55.70;;;;;;;;;;5040041;28;20037;-92
2022/12/10 14:20:00;;;;;;;171.60;75.13;;;;;;;;;;5040334;28;20029;-91
2022/12/10 14:22:32;;;;;;;149.98;66.97;;;;;;;;;;5039382;28;20071;-91
2022/12/10 14:25:04;;;;;;;267.35;111.57;;;;;;;;;;5039521;28;20030;-91
2022/12/10 14:27:31;;;;;;;337.48;148.88;;;;;;;;;;5039846;28;20431;-91
2022/12/10 14:30:14;;;;;;;616.65;310.52;;;;;;;;;;5022567;28;20431;-91
2022/12/10 14:32:41;;;;;;;478.23;199.75;;;;;;;;;;5039678;28;20052;-90
2022/12/10 14:35:08;;;;;;;337.00;128.10;;;;;;;;;;5039697;28;20030;-91
2022/12/10 14:37:36;;;;;;;258.75;101.75;;;;;;;;;;5039685;28;20034;-90
2022/12/10 14:40:05;;;;;;;445.95;191.82;;;;;;;;;;5039561;28;20418;-91
2022/12/10 14:42:31;;;;;;;289.77;119.82;;;;;;;;;;5038875;28;20408;-91
2022/12/10 14:45:01;;;;;;;335.83;132.50;;;;;;;;;;5039245;28;20369;-92
2022/12/10 14:47:32;;;;;;;151.13;66.85;;;;;;;;;;5039581;28;20021;-92
2022/12/10 14:50:01;;;;;;;88.53;52.60;;;;;;;;;;5021196;28;20045;-90
2022/12/10 14:52:40;;;;;;;42.20;20.65;;;;;;;;;;5039401;28;20255;-92
2022/12/10 14:55:06;;;;;;;54.28;31.70;;;;;;;;;;5038477;28;20025;-91
2022/12/10 14:57:35;;;;;;;71.32;37.03;;;;;;;;;;5038992;28;20030;-94
2022/12/10 15:00:13;;;;;;;93.55;42.47;;;;;;;;;;5022730;28;20083;-91
2022/12/10 15:02:41;;;;;;;184.48;77.72;;;;;;;;;;5022067;28;20328;-92
2022/12/10 15:05:12;;;;;;;197.43;85.45;;;;;;;;;;5022605;28;20034;-92
2022/12/10 15:07:39;;;;;;;229.05;100.97;;;;;;;;;;5022061;28;20022;-93
2022/12/10 15:10:08;;;;;;;72.30;37.85;;;;;;;;;;5022222;28;20030;-93
2022/12/10 15:12:34;;;;;;;80.45;41.75;;;;;;;;;;5040146;28;20469;-92
2022/12/10 15:15:06;;;;;;;95.70;48.20;;;;;;;;;;5038942;28;20032;-92
2022/12/10 15:17:32;;;;;;;;;;;;;;;;;;5039614;28;20037;-92
2022/12/10 15:19:58;;;;;;;87.22;44.03;;;;;;;;;;5040186;28;19909;-84
2022/12/10 15:22:27;;;;;;;74.47;39.05;;;;;;;;;;5038839;28;20112;-82
2022/12/10 15:24:53;;;;;;;64.55;35.72;;;;;;;;;;5038548;28;20029;-86